createdAt,value
2022-12-06T00:01:34.426Z,26.30
2022-12-06T00:04:06.098Z,26.30
2022-12-06T00:06:39.637Z,26.30
2022-12-06T00:09:11.714Z,26.20
2022-12-06T00:11:40.683Z,26.20
2022-12-06T00:14:09.133Z,26.20
2022-12-06T00:16:38.472Z,26.20
2022-12-06T00:19:08.243Z,26.20
2022-12-06T00:21:39.909Z,26.20
2022-12-06T00:24:11.776Z,26.20
2022-12-06T00:26:43.130Z,26.20
2022-12-06T00:29:17.100Z,26.20
2022-12-06T00:31:46.329Z,26.20
2022-12-06T00:34:15.709Z,26.20
2022-12-06T00:36:44.804Z,26.20
2022-12-06T00:39:20.315Z,26.10
2022-12-06T00:41:50.271Z,26.10
2022-12-06T00:44:18.865Z,26.20
2022-12-06T00:46:47.487Z,26.20
2022-12-06T00:49:16.503Z,26.20
2022-12-06T00:51:45.076Z,26.20
2022-12-06T00:54:15.798Z,26.20
2022-12-06T00:56:44.395Z,26.20
2022-12-06T00:59:12.799Z,26.20
2022-12-06T01:01:42.674Z,26.20
2022-12-06T01:04:11.210Z,26.20
2022-12-06T01:06:40.081Z,26.20
2022-12-06T01:09:12.199Z,26.20
2022-12-06T01:11:40.515Z,26.20
2022-12-06T01:14:09.056Z,26.10
2022-12-06T01:16:37.540Z,26.10
2022-12-06T01:19:06.904Z,26.10
2022-12-06T01:21:35.468Z,26.10
2022-12-06T01:24:04.242Z,26.00
2022-12-06T01:26:35.498Z,26.00
2022-12-06T01:29:05.076Z,26.00
2022-12-06T01:31:38.099Z,26.00
2022-12-06T01:34:16.070Z,26.00
2022-12-06T01:36:44.466Z,25.90
2022-12-06T01:39:12.721Z,25.90
2022-12-06T01:41:41.028Z,25.90
2022-12-06T01:44:40.792Z,25.90
2022-12-06T01:47:19.104Z,25.90
2022-12-06T01:50:12.488Z,25.90
2022-12-06T01:53:03.473Z,25.90
2022-12-06T01:55:35.790Z,25.90
2022-12-06T01:58:12.079Z,25.90
2022-12-06T02:00:40.616Z,25.80
2022-12-06T02:03:18.182Z,25.90
2022-12-06T02:05:46.831Z,25.80
2022-12-06T02:08:17.120Z,25.80
2022-12-06T02:10:47.667Z,25.80
2022-12-06T02:13:17.423Z,25.80
2022-12-06T02:15:59.446Z,25.80
2022-12-06T02:18:47.733Z,25.80
2022-12-06T02:21:41.841Z,25.80
2022-12-06T02:24:37.770Z,25.70
2022-12-06T02:27:43.140Z,25.70
2022-12-06T02:30:42.091Z,25.80
2022-12-06T02:33:22.789Z,25.80
2022-12-06T02:36:06.274Z,25.80
2022-12-06T02:38:44.966Z,25.80
2022-12-06T02:41:23.222Z,25.70
2022-12-06T02:43:59.318Z,25.70
2022-12-06T02:46:31.036Z,25.70
2022-12-06T02:49:02.827Z,25.70
2022-12-06T02:51:33.754Z,25.70
2022-12-06T02:54:05.815Z,25.60
2022-12-06T02:56:35.149Z,25.70
2022-12-06T02:59:03.746Z,25.70
2022-12-06T03:01:35.390Z,25.70
2022-12-06T03:04:33.931Z,25.60
2022-12-06T03:07:26.546Z,25.60
2022-12-06T03:10:31.773Z,25.60
2022-12-06T03:13:13.685Z,25.60
2022-12-06T03:15:58.151Z,25.60
2022-12-06T03:18:30.637Z,25.60
2022-12-06T03:21:48.315Z,25.50
2022-12-06T03:24:17.644Z,25.50
2022-12-06T03:26:50.673Z,25.50
2022-12-06T03:29:22.295Z,25.50
2022-12-06T03:31:53.136Z,25.50
2022-12-06T03:34:37.270Z,25.40
2022-12-06T03:37:08.188Z,25.40
2022-12-06T03:39:38.642Z,25.40
2022-12-06T03:42:08.098Z,25.40
2022-12-06T03:44:37.052Z,25.40
2022-12-06T03:47:24.521Z,25.40
2022-12-06T03:50:01.289Z,25.40
2022-12-06T03:52:31.006Z,25.40
2022-12-06T03:54:59.277Z,25.40
2022-12-06T03:57:27.876Z,25.40
2022-12-06T03:59:56.192Z,25.40
2022-12-06T04:02:24.685Z,25.30
2022-12-06T04:04:52.978Z,25.30
2022-12-06T04:07:21.471Z,25.30
2022-12-06T04:09:49.901Z,25.20
2022-12-06T04:12:18.552Z,25.20
2022-12-06T04:14:46.613Z,25.10
2022-12-06T04:17:15.179Z,25.10
2022-12-06T04:19:45.131Z,25.10
2022-12-06T04:22:16.568Z,25.10
2022-12-06T04:24:44.652Z,25.10
2022-12-06T04:27:12.848Z,25.00
2022-12-06T04:29:41.163Z,25.00
2022-12-06T04:32:09.453Z,25.00
2022-12-06T04:34:37.853Z,25.00
2022-12-06T04:37:06.607Z,25.00
2022-12-06T04:39:35.626Z,25.00
2022-12-06T04:42:04.416Z,25.00
2022-12-06T04:44:32.678Z,24.90
2022-12-06T04:47:01.420Z,24.90
2022-12-06T04:49:30.108Z,24.90
2022-12-06T04:51:58.762Z,24.90
2022-12-06T04:54:29.633Z,24.90
2022-12-06T04:56:59.725Z,24.90
2022-12-06T04:59:29.448Z,24.90
2022-12-06T05:01:57.839Z,24.80
2022-12-06T05:04:26.598Z,24.80
2022-12-06T05:07:00.331Z,24.80
2022-12-06T05:09:28.999Z,24.80
2022-12-06T05:11:57.519Z,24.80
2022-12-06T05:14:25.871Z,24.90
2022-12-06T05:16:54.200Z,24.90
2022-12-06T05:19:22.569Z,25.00
2022-12-06T05:21:50.632Z,25.00
2022-12-06T05:24:20.559Z,25.00
2022-12-06T05:26:49.076Z,24.90
2022-12-06T05:29:17.691Z,24.90
2022-12-06T05:31:46.224Z,24.90
2022-12-06T05:34:15.902Z,24.90
2022-12-06T05:36:44.872Z,24.80
2022-12-06T05:39:13.932Z,24.90
2022-12-06T05:41:42.541Z,24.80
2022-12-06T05:44:13.062Z,24.80
2022-12-06T05:46:41.866Z,24.80
2022-12-06T05:49:10.860Z,24.80
2022-12-06T05:51:39.422Z,24.70
2022-12-06T05:54:08.330Z,24.70
2022-12-06T05:56:36.963Z,24.70
2022-12-06T05:59:05.694Z,24.70
2022-12-06T06:01:36.164Z,24.70
2022-12-06T06:04:05.377Z,24.70
2022-12-06T06:06:35.350Z,24.70
2022-12-06T06:09:03.973Z,24.70
2022-12-06T06:11:32.401Z,24.70
2022-12-06T06:14:00.711Z,24.60
2022-12-06T06:16:28.889Z,24.60
2022-12-06T06:18:57.429Z,24.60
2022-12-06T06:21:25.852Z,24.60
2022-12-06T06:23:54.236Z,24.60
2022-12-06T06:26:22.785Z,24.60
2022-12-06T06:28:51.052Z,24.60
2022-12-06T06:31:19.391Z,24.60
2022-12-06T06:33:48.109Z,24.60
2022-12-06T06:36:16.654Z,24.60
2022-12-06T06:38:44.882Z,24.60
2022-12-06T06:41:13.103Z,24.50
2022-12-06T06:43:41.798Z,24.50
2022-12-06T06:46:11.745Z,24.60
2022-12-06T06:48:41.279Z,24.60
2022-12-06T06:51:12.949Z,24.60
2022-12-06T06:53:41.559Z,24.50
2022-12-06T06:56:10.500Z,24.60
2022-12-06T06:58:39.358Z,24.60
2022-12-06T07:01:09.476Z,24.50
2022-12-06T07:03:38.114Z,24.50
2022-12-06T07:06:10.217Z,24.50
2022-12-06T07:08:40.328Z,24.60
2022-12-06T07:11:10.573Z,24.60
2022-12-06T07:13:40.729Z,24.60
2022-12-06T07:16:16.516Z,24.60
2022-12-06T07:18:44.891Z,24.60
2022-12-06T07:21:15.504Z,24.60
2022-12-06T07:23:44.124Z,24.70
2022-12-06T07:26:18.927Z,24.70
2022-12-06T07:28:49.044Z,24.70
2022-12-06T07:31:28.560Z,24.70
2022-12-06T07:34:00.106Z,24.70
2022-12-06T07:36:32.006Z,24.70
2022-12-06T07:39:01.229Z,24.80
2022-12-06T07:41:31.073Z,24.80
2022-12-06T07:44:01.408Z,24.80
2022-12-06T07:46:31.764Z,24.80
2022-12-06T07:49:00.588Z,24.80
2022-12-06T07:51:29.064Z,24.90
2022-12-06T07:53:57.480Z,24.90
2022-12-06T07:56:26.183Z,24.90
2022-12-06T07:58:55.625Z,25.00
2022-12-06T08:01:24.088Z,24.90
2022-12-06T08:03:52.932Z,25.00
2022-12-06T08:06:21.159Z,25.00
2022-12-06T08:08:49.782Z,25.00
2022-12-06T08:11:18.077Z,25.10
2022-12-06T08:13:46.465Z,25.10
2022-12-06T08:16:15.032Z,25.10
2022-12-06T08:18:43.976Z,25.10
2022-12-06T08:21:12.667Z,25.20
2022-12-06T08:23:41.179Z,25.20
2022-12-06T08:26:13.331Z,25.30
2022-12-06T08:28:41.808Z,25.30
2022-12-06T08:31:17.987Z,25.30
2022-12-06T08:33:55.246Z,25.30
2022-12-06T08:36:25.769Z,25.30
2022-12-06T08:38:55.051Z,25.30
2022-12-06T08:41:25.306Z,25.40
2022-12-06T08:43:53.898Z,25.40
2022-12-06T08:46:22.736Z,25.40
2022-12-06T08:48:52.210Z,25.50
2022-12-06T08:51:21.961Z,25.60
2022-12-06T08:53:52.539Z,25.70
2022-12-06T08:56:23.387Z,25.70
2022-12-06T08:58:56.966Z,25.80
2022-12-06T09:01:37.508Z,25.80
2022-12-06T09:04:10.765Z,25.90
2022-12-06T09:06:44.430Z,26.00
2022-12-06T09:09:23.367Z,26.00
2022-12-06T09:11:53.988Z,26.00
2022-12-06T09:14:22.635Z,26.10
2022-12-06T09:16:52.323Z,26.20
2022-12-06T09:19:21.203Z,26.20
2022-12-06T09:21:49.349Z,26.20
2022-12-06T09:24:19.054Z,26.30
2022-12-06T09:26:48.004Z,26.30
2022-12-06T09:29:17.910Z,26.40
2022-12-06T09:31:47.728Z,26.50
2022-12-06T09:34:17.372Z,26.50
2022-12-06T09:36:55.964Z,26.50
2022-12-06T09:39:48.974Z,26.60
2022-12-06T09:42:38.703Z,26.70
2022-12-06T09:45:14.341Z,26.70
2022-12-06T09:48:27.125Z,26.80
2022-12-06T09:51:33.237Z,26.90
2022-12-06T09:54:12.653Z,26.90
2022-12-06T09:56:51.584Z,27.10
2022-12-06T09:59:37.929Z,27.20
2022-12-06T10:02:20.833Z,27.30
2022-12-06T10:04:59.109Z,27.40
2022-12-06T10:07:56.448Z,27.40
2022-12-06T10:10:38.453Z,27.50
2022-12-06T10:13:21.919Z,27.60
2022-12-06T10:16:26.346Z,27.70
2022-12-06T10:19:10.864Z,27.70
2022-12-06T10:22:06.361Z,27.80
2022-12-06T10:24:47.033Z,28.00
2022-12-06T10:27:41.029Z,28.00
2022-12-06T10:30:15.539Z,28.00
2022-12-06T10:32:49.925Z,28.00
2022-12-06T10:35:52.364Z,28.10
2022-12-06T10:38:28.044Z,28.10
2022-12-06T10:41:15.078Z,28.10
2022-12-06T10:43:58.638Z,28.10
2022-12-06T10:46:50.195Z,28.20
2022-12-06T10:49:18.793Z,28.10
2022-12-06T10:51:54.309Z,28.20
2022-12-06T10:54:47.236Z,28.30
2022-12-06T10:57:23.869Z,28.30
2022-12-06T11:00:20.050Z,28.30
2022-12-06T11:03:07.740Z,28.50
2022-12-06T11:05:50.053Z,28.50
2022-12-06T11:08:27.995Z,28.60
2022-12-06T11:10:59.208Z,28.60
2022-12-06T11:13:42.858Z,28.80
2022-12-06T11:16:33.876Z,29.00
2022-12-06T11:19:34.768Z,29.00
2022-12-06T11:22:12.689Z,29.00
2022-12-06T11:24:53.763Z,29.10
2022-12-06T11:27:31.376Z,29.10
2022-12-06T11:30:01.447Z,28.90
2022-12-06T11:32:32.672Z,29.00
2022-12-06T11:35:01.846Z,28.90
2022-12-06T11:37:34.429Z,29.00
2022-12-06T11:40:30.123Z,28.90
2022-12-06T11:43:02.996Z,28.80
2022-12-06T11:45:34.729Z,28.80
2022-12-06T11:48:20.292Z,28.80
2022-12-06T11:50:50.928Z,28.90
2022-12-06T11:53:31.023Z,28.70
2022-12-06T11:56:41.692Z,28.70
2022-12-06T11:59:22.100Z,28.80
2022-12-06T12:01:52.772Z,28.90
2022-12-06T12:04:36.666Z,28.80
2022-12-06T12:07:11.916Z,28.90
2022-12-06T12:09:59.831Z,28.80
2022-12-06T12:12:40.946Z,28.90
2022-12-06T12:15:18.706Z,28.70
2022-12-06T12:17:51.840Z,28.70
2022-12-06T12:20:29.655Z,28.70
2022-12-06T12:23:05.389Z,28.60
2022-12-06T12:25:36.138Z,28.70
2022-12-06T12:28:23.368Z,28.80
2022-12-06T12:31:02.844Z,28.80
2022-12-06T12:33:31.225Z,28.90
2022-12-06T12:36:05.454Z,28.90
2022-12-06T12:39:09.389Z,29.00
2022-12-06T12:41:44.521Z,29.10
2022-12-06T12:44:39.244Z,29.10
2022-12-06T12:47:19.274Z,29.20
2022-12-06T12:50:25.033Z,29.10
2022-12-06T12:53:00.084Z,29.00
2022-12-06T12:55:50.136Z,29.10
2022-12-06T12:58:20.359Z,29.20
2022-12-06T13:00:49.964Z,29.20
2022-12-06T13:03:50.302Z,29.30
2022-12-06T13:06:27.969Z,29.40
2022-12-06T13:09:04.366Z,29.60
2022-12-06T13:11:41.329Z,29.50
2022-12-06T13:14:23.715Z,29.40
2022-12-06T13:16:55.591Z,29.50
2022-12-06T13:19:34.121Z,29.50
2022-12-06T13:22:05.588Z,29.50
2022-12-06T13:24:35.645Z,29.60
2022-12-06T13:27:14.303Z,29.50
2022-12-06T13:30:01.445Z,29.50
2022-12-06T13:32:47.498Z,29.40
2022-12-06T13:35:32.573Z,29.60
2022-12-06T13:38:03.510Z,29.70
2022-12-06T13:40:34.722Z,29.70
2022-12-06T13:43:06.182Z,29.70
2022-12-06T13:45:46.658Z,29.90
2022-12-06T13:48:25.915Z,29.70
2022-12-06T13:51:03.485Z,29.80
2022-12-06T13:53:35.789Z,29.70
2022-12-06T13:56:30.165Z,30.00
2022-12-06T13:59:21.114Z,30.20
2022-12-06T14:01:54.678Z,30.20
2022-12-06T14:06:54.677Z,30.10
2022-12-06T14:09:24.953Z,30.10
2022-12-06T14:11:54.093Z,30.30
2022-12-06T14:14:25.491Z,30.20
2022-12-06T14:17:02.812Z,30.30
2022-12-06T14:19:47.436Z,30.40
2022-12-06T14:22:29.535Z,30.50
2022-12-06T14:25:04.751Z,30.50
2022-12-06T14:27:43.306Z,30.70
2022-12-06T14:30:14.790Z,30.80
2022-12-06T14:32:46.811Z,30.90
2022-12-06T14:35:16.764Z,30.70
2022-12-06T14:38:03.239Z,30.70
2022-12-06T14:40:48.795Z,30.60
2022-12-06T14:43:20.251Z,30.60
2022-12-06T14:45:49.078Z,30.40
2022-12-06T14:48:18.197Z,30.40
2022-12-06T14:51:06.651Z,30.60
2022-12-06T14:53:39.871Z,30.80
2022-12-06T14:56:29.685Z,30.90
2022-12-06T14:59:00.983Z,30.80
2022-12-06T15:01:31.644Z,30.70
2022-12-06T15:04:05.229Z,30.80
2022-12-06T15:06:37.070Z,30.70
2022-12-06T15:09:16.318Z,30.80
2022-12-06T15:11:45.503Z,31.00
2022-12-06T15:14:19.860Z,31.10
2022-12-06T15:17:00.271Z,31.00
2022-12-06T15:19:34.392Z,30.80
2022-12-06T15:22:24.864Z,30.80
2022-12-06T15:24:57.311Z,30.80
2022-12-06T15:27:30.653Z,31.10
2022-12-06T15:29:59.483Z,31.10
2022-12-06T15:32:28.975Z,31.30
2022-12-06T15:35:06.609Z,31.40
2022-12-06T15:37:40.026Z,31.50
2022-12-06T15:40:11.139Z,31.50
2022-12-06T15:42:40.221Z,31.60
2022-12-06T15:45:15.448Z,31.60
2022-12-06T15:47:43.823Z,31.50
2022-12-06T15:50:14.729Z,31.50
2022-12-06T15:52:43.005Z,31.60
2022-12-06T15:55:18.102Z,31.70
2022-12-06T15:57:46.364Z,31.70
2022-12-06T16:00:14.889Z,31.60
2022-12-06T16:02:43.283Z,31.50
2022-12-06T16:05:16.802Z,31.50
2022-12-06T16:07:47.207Z,31.50
2022-12-06T16:10:22.056Z,31.30
2022-12-06T16:12:50.776Z,31.40
2022-12-06T16:15:19.066Z,31.30
2022-12-06T16:17:47.550Z,31.40
2022-12-06T16:20:16.471Z,31.40
2022-12-06T16:22:46.158Z,31.30
2022-12-06T16:25:17.354Z,31.30
2022-12-06T16:27:47.003Z,31.30
2022-12-06T16:30:15.588Z,31.10
2022-12-06T16:32:43.888Z,31.00
2022-12-06T16:35:12.246Z,31.00
2022-12-06T16:37:42.696Z,31.00
2022-12-06T16:40:21.354Z,30.90
2022-12-06T16:42:49.887Z,30.70
2022-12-06T16:45:18.715Z,30.50
2022-12-06T16:47:47.001Z,30.60
2022-12-06T16:50:38.789Z,30.80
2022-12-06T16:53:07.174Z,31.00
2022-12-06T16:55:35.683Z,31.00
2022-12-06T16:58:04.041Z,30.90
2022-12-06T17:00:32.702Z,30.80
2022-12-06T17:03:01.230Z,30.60
2022-12-06T17:05:31.807Z,30.50
2022-12-06T17:08:00.647Z,30.50
2022-12-06T17:10:29.129Z,30.40
2022-12-06T17:12:58.065Z,30.20
2022-12-06T17:15:26.623Z,30.10
2022-12-06T17:17:57.189Z,29.90
2022-12-06T17:20:29.485Z,29.80
2022-12-06T17:22:59.201Z,29.60
2022-12-06T17:25:30.449Z,29.50
2022-12-06T17:28:00.326Z,29.50
2022-12-06T17:30:28.694Z,29.50
2022-12-06T17:32:57.123Z,29.40
2022-12-06T17:35:25.462Z,29.40
2022-12-06T17:37:54.037Z,29.30
2022-12-06T17:40:22.965Z,29.20
2022-12-06T17:42:51.253Z,29.10
2022-12-06T17:45:24.635Z,29.00
2022-12-06T17:47:53.463Z,28.90
2022-12-06T17:50:21.839Z,28.90
2022-12-06T17:52:50.520Z,28.80
2022-12-06T17:55:19.021Z,28.70
2022-12-06T17:57:47.552Z,28.60
2022-12-06T18:00:16.727Z,28.50
2022-12-06T18:02:46.001Z,28.50
2022-12-06T18:05:15.583Z,28.50
2022-12-06T18:07:49.895Z,28.40
2022-12-06T18:10:19.931Z,28.40
2022-12-06T18:12:48.651Z,28.40
2022-12-06T18:15:17.372Z,28.30
2022-12-06T18:17:46.604Z,28.30
2022-12-06T18:20:18.571Z,28.30
2022-12-06T18:22:48.831Z,28.20
2022-12-06T18:25:18.418Z,28.10
2022-12-06T18:27:51.724Z,28.10
2022-12-06T18:30:22.062Z,28.10
2022-12-06T18:32:53.282Z,28.10
2022-12-06T18:35:23.741Z,28.10
2022-12-06T18:37:53.933Z,28.00
2022-12-06T18:40:23.134Z,28.00
2022-12-06T18:42:51.784Z,28.00
2022-12-06T18:45:26.740Z,28.00
2022-12-06T18:47:56.236Z,27.90
2022-12-06T18:50:24.857Z,27.90
2022-12-06T18:52:53.186Z,27.90
2022-12-06T18:55:21.626Z,27.90
2022-12-06T18:57:50.611Z,27.90
2022-12-06T19:00:19.313Z,27.90
2022-12-06T19:02:48.063Z,27.90
2022-12-06T19:05:27.725Z,27.90
2022-12-06T19:08:05.100Z,27.90
2022-12-06T19:10:33.439Z,27.90
2022-12-06T19:13:05.772Z,27.90
2022-12-06T19:15:34.572Z,27.90
2022-12-06T19:18:03.525Z,27.90
2022-12-06T19:20:35.494Z,27.90
2022-12-06T19:23:14.784Z,27.90
2022-12-06T19:25:43.427Z,27.80
2022-12-06T19:28:12.976Z,27.80
2022-12-06T19:30:42.102Z,27.80
2022-12-06T19:33:11.419Z,27.80
2022-12-06T19:35:40.329Z,27.80
2022-12-06T19:38:08.941Z,27.80
2022-12-06T19:40:41.971Z,27.80
2022-12-06T19:43:10.825Z,27.80
2022-12-06T19:45:39.341Z,27.70
2022-12-06T19:48:08.323Z,27.70
2022-12-06T19:50:37.940Z,27.70
2022-12-06T19:53:06.665Z,27.70
2022-12-06T19:55:35.063Z,27.80
2022-12-06T19:58:11.605Z,27.70
2022-12-06T20:00:40.208Z,27.70
2022-12-06T20:03:09.751Z,27.70
2022-12-06T20:05:38.630Z,27.70
2022-12-06T20:08:07.566Z,27.70
2022-12-06T20:10:40.231Z,27.70
2022-12-06T20:13:08.856Z,27.70
2022-12-06T20:15:37.500Z,27.60
2022-12-06T20:18:06.414Z,27.70
2022-12-06T20:20:35.187Z,27.60
2022-12-06T20:23:06.172Z,27.60
2022-12-06T20:25:39.041Z,27.60
2022-12-06T20:28:13.174Z,27.60
2022-12-06T20:30:43.769Z,27.50
2022-12-06T20:33:13.693Z,27.50
2022-12-06T20:35:42.248Z,27.50
2022-12-06T20:38:10.713Z,27.50
2022-12-06T20:40:42.823Z,27.60
2022-12-06T20:43:11.663Z,27.60
2022-12-06T20:45:41.627Z,27.60
2022-12-06T20:48:10.654Z,27.60
2022-12-06T20:50:40.364Z,27.60
2022-12-06T20:53:11.253Z,27.50
2022-12-06T20:55:42.999Z,27.50
2022-12-06T20:58:12.137Z,27.50
2022-12-06T21:00:41.892Z,27.60
2022-12-06T21:03:10.711Z,27.50
2022-12-06T21:05:43.377Z,27.50
2022-12-06T21:08:13.788Z,27.50
2022-12-06T21:11:00.274Z,27.50
2022-12-06T21:13:31.392Z,27.40
2022-12-06T21:16:30.465Z,27.40
2022-12-06T21:19:28.108Z,27.40
2022-12-06T21:21:56.790Z,27.40
2022-12-06T21:24:24.994Z,27.40
2022-12-06T21:26:53.519Z,27.40
2022-12-06T21:29:30.381Z,27.40
2022-12-06T21:32:02.362Z,27.40
2022-12-06T21:34:36.740Z,27.50
2022-12-06T21:37:08.106Z,27.40
2022-12-06T21:39:41.420Z,27.40
2022-12-06T21:42:10.213Z,27.40
2022-12-06T21:44:40.924Z,27.30
2022-12-06T21:47:10.154Z,27.30
2022-12-06T21:49:39.876Z,27.30
2022-12-06T21:52:09.529Z,27.30
2022-12-06T21:54:38.216Z,27.20
2022-12-06T21:57:06.689Z,27.20
2022-12-06T21:59:34.999Z,27.20
2022-12-06T22:02:03.317Z,27.20
2022-12-06T22:04:31.751Z,27.20
2022-12-06T22:07:00.180Z,27.10
2022-12-06T22:09:28.441Z,27.20
2022-12-06T22:11:58.276Z,27.20
2022-12-06T22:14:27.549Z,27.20
2022-12-06T22:16:59.052Z,27.20
2022-12-06T22:19:29.358Z,27.10
2022-12-06T22:21:59.965Z,27.20
2022-12-06T22:24:29.505Z,27.10
2022-12-06T22:26:59.496Z,27.10
2022-12-06T22:29:30.227Z,27.10
2022-12-06T22:31:59.419Z,27.10
2022-12-06T22:34:30.127Z,27.10
2022-12-06T22:37:01.201Z,27.10
2022-12-06T22:39:30.170Z,27.10
2022-12-06T22:41:59.121Z,27.10
2022-12-06T22:44:27.925Z,27.00
2022-12-06T22:46:56.877Z,27.10
2022-12-06T22:49:26.705Z,27.10
2022-12-06T22:51:55.680Z,27.10
2022-12-06T22:54:26.066Z,27.10
2022-12-06T22:56:54.684Z,27.10
2022-12-06T22:59:22.945Z,27.10
2022-12-06T23:01:51.543Z,27.10
2022-12-06T23:04:20.805Z,27.10
2022-12-06T23:06:51.289Z,27.10
2022-12-06T23:09:19.803Z,27.20
2022-12-06T23:11:48.083Z,27.20
2022-12-06T23:14:16.357Z,27.10
2022-12-06T23:16:45.157Z,27.10
2022-12-06T23:19:14.769Z,27.10
2022-12-06T23:21:43.911Z,27.20
2022-12-06T23:24:15.264Z,27.10
2022-12-06T23:26:54.548Z,27.10
2022-12-06T23:29:26.417Z,27.10
2022-12-06T23:31:55.173Z,27.10
2022-12-06T23:34:25.655Z,27.10
2022-12-06T23:36:56.637Z,27.10
2022-12-06T23:39:25.427Z,27.10
2022-12-06T23:41:55.468Z,27.10
2022-12-06T23:44:24.359Z,27.10
2022-12-06T23:46:53.045Z,27.10
2022-12-06T23:49:23.109Z,27.00
2022-12-06T23:51:51.736Z,27.00
2022-12-06T23:54:20.466Z,27.00
2022-12-06T23:56:49.168Z,27.10
2022-12-06T23:59:19.144Z,27.00
